Portada
METAR-TAF:

METAR-TAF

Aeroports :

Fort Smith, Arkansas, Estats Units d'Amèrica

latitud: 35-20-01N, longitud: 094-21-54W, altitud: 142 m

Observació

L'informe es va fer fa 52 minuts, a les 10:53 UTC
Vent calma
Temperatura 23°C
Humitat 89%
Pressió 1019 hPa
Visibilitat: 16.1 km
Cel clar

METAR: KFSM 221053Z 00000KT 10SM CLR 23/21 A3008 RMK AO2 SLP180 T02280206

Hora: 06:45 (11:45 UTC)

Pronòstic

L'informe es va fer fa 25 minuts, a les 11:20 UTC
Pronòstic vàlid del 22 a les 12 UTC al 23 a les 12 UTC
Vent 3 kt del Est
Visibilitat: 10 km
Escasses núvols a una alçada de 5000 ft
Núvols disperses a una alçada de 25000 ft
A partir de les 22 a les 1500 UTC
Vent 9 kt del Sud-Oest
Visibilitat: 10 km
Núvols disperses a una alçada de 5000 ft
Núvols disperses a una alçada de 25000 ft

TAF: KFSM 221120Z 2212/2312 09003KT P6SM FEW050 SCT250 FM221500 22009KT P6SM SCT050 SCT250

Observacions i pronòstics meteorològics de més de 4000 aeroports (METAR i TAF).

Les estacions disponibles són els punts grocs i vermells al mapa.

Posi el ratolí al punt desitjat per veure el nom de l'estació.

Feu clic per veure les observacions i els pronòstics meteorològics.

Per canviar el mapa: feu clic els botons verds amb una creu de color negre per apropar; al botó verd amb un guió per allunyar la imatge; o en les fletxes verdes per a mapes adjacents.


METAR-TAF: